Terminal Aerodrome Forecast
Issued by NWS

Home | Current Version | Previous Version | Graphics & Text | Print | Product List | Glossary On
Versions: 1 2 3 4 5 6 7 8 9 10 11 12 13
000
FTUS43 KGRB 182329
TAFAUW
TAF
KAUW 182329Z 1900/1924 02010KT P6SM BKN050
     FM190200 01010KT P6SM SCT050 BKN150 WS010/03035KT
     FM191200 32010KT P6SM SKC=

USA.gov is the U.S. government's official web portal to all federal, state and local government web resources and services.